Time;durP1;ratioP1;P1;durP2;ratioP2;P2;SDS_P1;SDS_P2;PMS_P1;PMS_P2;Temp;Humidity;BMP_temperature;BMP_pressure;BME280_temperature;BME280_humidity;BME280_pressure;Samples;Min_cycle;Max_cycle;Signal;HPM_P1;HPM_P2
2020/12/01 05:25:28;;;;;;;1999.90;999.90;;;-1.10;99.90;;;;;;5107438;27;20594;-48
2020/12/01 05:28:14;;;;;;;1999.90;999.90;;;-1.10;99.90;;;;;;5095929;28;20458;-48
2020/12/01 05:30:43;;;;;;;1999.90;999.90;;;-1.10;99.90;;;;;;5083098;28;20430;-48
2020/12/01 05:33:24;;;;;;;1999.90;999.90;;;-1.10;99.90;;;;;;5078772;28;20503;-48
2020/12/01 05:36:01;;;;;;;1999.90;999.90;;;-1.00;99.90;;;;;;5078468;28;20794;-47
2020/12/01 05:38:27;;;;;;;1999.90;999.90;;;-1.00;99.90;;;;;;5078617;28;20456;-48
2020/12/01 05:40:59;;;;;;;1999.90;999.90;;;-1.00;99.90;;;;;;5084565;28;20516;-48
2020/12/01 05:43:38;;;;;;;1999.90;999.90;;;-0.90;99.90;;;;;;5086564;28;20477;-48
2020/12/01 05:46:21;;;;;;;1999.90;999.90;;;-0.90;99.90;;;;;;5095126;28;21146;-48
2020/12/01 05:48:57;;;;;;;1999.90;999.90;;;-0.90;99.90;;;;;;5069937;28;20546;-48
2020/12/01 05:51:42;;;;;;;1999.90;999.90;;;-0.90;99.90;;;;;;5084627;28;20430;-48
2020/12/01 05:54:20;;;;;;;1999.90;999.90;;;-0.80;99.90;;;;;;5087471;28;20435;-48
2020/12/01 05:56:51;;;;;;;1999.90;999.90;;;-0.90;99.90;;;;;;5089529;28;20547;-48
2020/12/01 05:59:21;;;;;;;1999.90;999.90;;;-0.80;99.90;;;;;;5092493;28;20497;-48
2020/12/01 06:02:00;;;;;;;1999.90;999.90;;;-0.80;99.90;;;;;;5097600;28;20427;-48
2020/12/01 06:04:26;;;;;;;1999.90;999.90;;;-0.80;99.90;;;;;;5106353;28;21001;-48
2020/12/01 06:07:04;;;;;;;1999.90;999.90;;;-0.80;99.90;;;;;;5089117;28;20995;-48
2020/12/01 06:09:47;;;;;;;1999.90;999.90;;;-0.80;99.90;;;;;;5088539;28;20423;-48
2020/12/01 06:12:52;;;;;;;1999.90;999.90;;;-0.80;99.90;;;;;;5089415;28;20411;-48
2020/12/01 06:15:19;;;;;;;1999.90;999.90;;;-0.80;99.90;;;;;;5086840;28;20423;-48
2020/12/01 06:17:50;;;;;;;1999.90;999.90;;;-0.80;99.90;;;;;;5088083;28;20445;-48
2020/12/01 06:20:20;;;;;;;1999.90;999.90;;;-0.70;99.90;;;;;;5088940;28;20407;-48
2020/12/01 06:23:07;;;;;;;1999.90;999.90;;;-0.80;99.90;;;;;;5073218;28;20436;-48
2020/12/01 06:26:21;;;;;;;1999.90;999.90;;;-0.70;99.90;;;;;;5070697;28;20448;-48
2020/12/01 06:29:28;;;;;;;1999.90;999.90;;;-0.70;99.90;;;;;;5079804;28;20446;-48
2020/12/01 06:32:31;;;;;;;1999.90;999.90;;;-0.70;99.90;;;;;;4990145;28;20424;-48
2020/12/01 06:35:40;;;;;;;1999.90;999.90;;;-0.60;99.90;;;;;;4985347;28;20498;-47
2020/12/01 06:38:42;;;;;;;1999.90;999.90;;;-0.60;99.90;;;;;;5074125;28;20441;-47
2020/12/01 06:41:12;;;;;;;1999.90;999.90;;;-0.70;99.90;;;;;;5033151;28;20471;-47
2020/12/01 06:43:42;;;;;;;1999.90;999.90;;;-0.70;99.90;;;;;;5060192;28;20459;-47
2020/12/01 06:46:46;;;;;;;1999.90;999.90;;;-0.70;99.90;;;;;;5074058;28;20430;-48
2020/12/01 06:49:21;;;;;;;1999.90;999.90;;;-0.70;99.90;;;;;;5057209;28;20440;-47
2020/12/01 06:51:49;;;;;;;1999.90;999.90;;;-0.70;99.90;;;;;;5074142;28;20429;-48
2020/12/01 06:54:15;;;;;;;1999.90;999.90;;;-0.70;99.90;;;;;;5059444;28;20816;-48
2020/12/01 06:56:41;;;;;;;1999.90;999.90;;;-0.70;99.90;;;;;;5055304;28;20452;-47
2020/12/01 06:59:12;;;;;;;1999.90;999.90;;;-0.70;99.90;;;;;;5054349;28;20409;-47
2020/12/01 07:01:39;;;;;;;1999.90;999.90;;;-0.70;99.90;;;;;;5065313;28;21029;-47
2020/12/01 07:04:27;;;;;;;1999.90;999.90;;;-0.60;99.90;;;;;;5063974;28;20506;-47
2020/12/01 07:06:54;;;;;;;1999.90;999.90;;;-0.70;99.90;;;;;;5058707;28;20436;-48
2020/12/01 07:09:24;;;;;;;1999.90;999.90;;;-0.60;99.90;;;;;;5052249;28;20428;-47
2020/12/01 07:12:24;;;;;;;1999.90;999.90;;;-0.60;99.90;;;;;;5057457;28;20436;-48
2020/12/01 07:15:13;;;;;;;1999.90;999.90;;;-0.60;99.90;;;;;;5052429;28;20452;-47
2020/12/01 07:17:50;;;;;;;1999.90;999.90;;;-0.60;99.90;;;;;;5064135;28;20488;-48
2020/12/01 07:20:46;;;;;;;1999.90;999.90;;;-0.60;99.90;;;;;;5069900;28;20427;-47
2020/12/01 07:23:26;;;;;;;1999.90;999.90;;;-0.60;99.90;;;;;;5071840;28;20887;-48
2020/12/01 07:26:21;;;;;;;1999.90;999.90;;;-0.50;99.90;;;;;;5073459;28;20454;-47
2020/12/01 07:28:49;;;;;;;1999.90;999.90;;;-0.60;99.90;;;;;;5052210;28;20468;-48
2020/12/01 07:31:29;;;;;;;1999.90;999.90;;;-0.50;99.90;;;;;;5052014;28;20416;-47
2020/12/01 07:34:02;;;;;;;1999.90;999.90;;;-0.50;99.90;;;;;;5052398;28;20763;-47
2020/12/01 07:36:41;;;;;;;1999.90;999.90;;;-0.40;99.90;;;;;;5052609;28;20514;-47
2020/12/01 07:39:20;;;;;;;1999.90;999.90;;;-0.40;99.90;;;;;;5051421;28;20432;-47
2020/12/01 07:42:00;;;;;;;1999.90;999.90;;;-0.40;99.90;;;;;;5062544;28;20459;-48
2020/12/01 07:44:41;;;;;;;1999.90;999.90;;;-0.30;99.90;;;;;;5079857;28;20511;-48
2020/12/01 07:47:13;;;;;;;1999.90;999.90;;;-0.40;99.90;;;;;;5080704;28;20455;-48
2020/12/01 07:49:39;;;;;;;1999.90;999.90;;;-0.30;99.90;;;;;;5055150;28;20960;-48
2020/12/01 07:52:37;;;;;;;1999.90;999.90;;;-0.40;99.90;;;;;;5063849;28;20431;-48
2020/12/01 07:55:16;;;;;;;1999.90;999.90;;;-0.30;99.90;;;;;;5071621;28;20235;-48
2020/12/01 07:57:42;;;;;;;1999.90;999.90;;;-0.30;99.90;;;;;;5063487;28;20858;-48
2020/12/01 14:03:36;;;;;;;1999.90;999.90;;;1.00;99.90;;;;;;5065273;28;20616;-47
2020/12/01 14:06:01;;;;;;;1999.90;999.90;;;1.00;99.90;;;;;;5039921;28;20451;-47
2020/12/01 14:08:28;;;;;;;1999.90;999.90;;;1.00;99.90;;;;;;5045587;28;20218;-46
2020/12/01 14:10:54;;;;;;;1999.90;999.90;;;1.10;99.90;;;;;;5045092;28;20191;-48
2020/12/01 14:13:20;;;;;;;1999.90;999.90;;;1.20;99.90;;;;;;5043465;28;21229;-48
2020/12/01 14:15:45;;;;;;;1999.90;999.90;;;1.20;99.90;;;;;;5043252;28;20198;-47
2020/12/01 14:18:11;;;;;;;1999.90;999.90;;;1.30;99.90;;;;;;5042412;28;20210;-48
2020/12/01 14:20:36;;;;;;;1999.90;999.90;;;1.40;99.90;;;;;;5044856;28;20712;-47
2020/12/01 14:23:02;;;;;;;1999.90;999.90;;;1.30;99.90;;;;;;5040227;28;20298;-48
2020/12/01 14:25:28;;;;;;;1999.90;999.90;;;1.30;99.90;;;;;;5045110;28;20219;-48
2020/12/01 14:27:54;;;;;;;1999.90;999.90;;;1.30;99.90;;;;;;5044832;28;20443;-47
2020/12/01 14:30:21;;;;;;;1999.90;999.90;;;1.30;99.90;;;;;;5040210;28;20627;-47
2020/12/01 14:32:47;;;;;;;1999.90;999.90;;;1.30;99.90;;;;;;5044613;28;20284;-47
2020/12/01 14:35:17;;;;;;;1999.90;999.90;;;1.30;99.90;;;;;;5042946;28;20418;-46
2020/12/01 14:37:42;;;;;;;1999.90;999.90;;;1.20;99.90;;;;;;5044148;28;20974;-48
2020/12/01 14:40:09;;;;;;;1999.90;999.90;;;1.10;99.90;;;;;;5044515;28;20421;-47
2020/12/01 14:42:35;;;;;;;1999.90;999.90;;;1.10;99.90;;;;;;5041879;28;20593;-47
2020/12/01 14:45:03;;;;;;;1999.90;999.90;;;1.00;99.90;;;;;;5044492;28;20421;-48
2020/12/01 14:47:54;;;;;;;1999.90;999.90;;;1.00;99.90;;;;;;5042754;28;20837;-47
2020/12/01 14:50:29;;;;;;;1999.90;999.90;;;1.00;99.90;;;;;;5041221;28;20426;-47
2020/12/01 14:53:25;;;;;;;1999.90;999.90;;;1.00;99.90;;;;;;5041635;28;20564;-47
2020/12/01 14:56:10;;;;;;;1999.90;999.90;;;0.90;99.90;;;;;;5042311;28;20520;-47
2020/12/01 14:59:08;;;;;;;1999.90;999.90;;;0.90;99.90;;;;;;5042637;28;20476;-48
2020/12/01 15:01:43;;;;;;;1999.90;999.90;;;0.90;99.90;;;;;;5041631;28;20468;-47
2020/12/01 15:04:30;;;;;;;1999.90;999.90;;;0.90;99.90;;;;;;5041710;28;20479;-47
2020/12/01 15:07:14;;;;;;;1999.90;999.90;;;0.80;99.90;;;;;;5042000;28;20432;-47
2020/12/01 15:09:49;;;;;;;1999.90;999.90;;;0.80;99.90;;;;;;5039829;28;20421;-47
2020/12/01 15:12:36;;;;;;;1999.90;999.90;;;0.70;99.90;;;;;;5043755;28;20921;-47
2020/12/01 15:15:08;;;;;;;1999.90;999.90;;;0.70;99.90;;;;;;5025073;28;20430;-46
2020/12/01 15:17:35;;;;;;;1999.90;999.90;;;0.70;99.90;;;;;;5029902;28;20465;-46
2020/12/01 15:20:04;;;;;;;1999.90;999.90;;;0.60;99.90;;;;;;5030017;28;20484;-47
2020/12/01 15:22:36;;;;;;;1999.90;999.90;;;0.60;99.90;;;;;;5011446;28;20471;-47
2020/12/01 15:25:09;;;;;;;1999.90;999.90;;;0.60;99.90;;;;;;5011667;28;20947;-47
2020/12/01 15:27:39;;;;;;;1999.90;999.90;;;0.60;99.90;;;;;;5012150;28;20896;-47
2020/12/01 15:30:08;;;;;;;1999.90;999.90;;;0.50;99.90;;;;;;5011048;28;20766;-47
2020/12/01 15:32:33;;;;;;;1999.90;999.90;;;0.50;99.90;;;;;;5011327;28;20510;-47
2020/12/01 15:35:01;;;;;;;1999.90;999.90;;;0.50;99.90;;;;;;5011309;28;20517;-47
2020/12/01 15:37:28;;;;;;;1999.90;999.90;;;0.50;99.90;;;;;;5014815;28;20254;-47
2020/12/01 15:39:53;;;;;;;1999.90;999.90;;;0.50;99.90;;;;;;5030593;28;20568;-47
2020/12/01 15:42:19;;;;;;;1999.90;999.90;;;0.40;99.90;;;;;;5030445;28;20980;-47
2020/12/01 15:44:45;;;;;;;1999.90;999.90;;;0.40;99.90;;;;;;5030980;28;20273;-47
2020/12/01 15:47:12;;;;;;;1999.90;999.90;;;0.40;99.90;;;;;;5020866;28;20208;-47
2020/12/01 15:49:38;;;;;;;1999.90;999.90;;;0.40;99.90;;;;;;5024804;28;20916;-47
2020/12/01 15:52:25;;;;;;;1999.90;999.90;;;0.40;99.90;;;;;;5030869;28;20441;-47
2020/12/01 15:55:09;;;;;;;1999.90;999.90;;;0.40;99.90;;;;;;5017685;28;20446;-47
2020/12/01 15:57:43;;;;;;;1999.90;999.90;;;0.40;99.90;;;;;;5018566;28;20465;-46
2020/12/01 16:00:20;;;;;;;1999.90;999.90;;;0.40;99.90;;;;;;5027673;28;20433;-47
2020/12/01 16:03:04;;;;;;;1999.90;999.90;;;0.40;99.90;;;;;;5030718;28;20520;-47
2020/12/01 16:06:14;;;;;;;1999.90;999.90;;;0.40;99.90;;;;;;5030330;28;20466;-47
2020/12/01 16:09:14;;;;;;;1999.90;999.90;;;0.50;99.90;;;;;;5026942;28;20454;-47
2020/12/01 16:12:19;;;;;;;1999.90;999.90;;;0.50;99.90;;;;;;5020299;28;22234;-46
2020/12/01 16:14:58;;;;;;;1999.90;999.90;;;0.50;99.90;;;;;;5030373;28;21007;-47
2020/12/01 16:17:45;;;;;;;1999.90;999.90;;;0.50;99.90;;;;;;5041228;28;20493;-47
2020/12/01 16:20:20;;;;;;;1999.90;999.90;;;0.50;99.90;;;;;;5027720;28;20445;-47
2020/12/01 16:22:46;;;;;;;1999.90;999.90;;;0.50;99.90;;;;;;5021540;28;20583;-47
2020/12/01 16:25:16;;;;;;;1999.90;999.90;;;0.50;99.90;;;;;;5026570;28;20434;-47
2020/12/01 16:27:53;;;;;;;1999.90;999.90;;;0.40;99.90;;;;;;5030504;28;20915;-47
2020/12/01 16:30:31;;;;;;;1999.90;999.90;;;0.40;99.90;;;;;;5032150;28;20486;-48
2020/12/01 16:32:57;;;;;;;1999.90;999.90;;;0.40;99.90;;;;;;5031791;28;20515;-47
2020/12/01 16:35:24;;;;;;;1999.90;999.90;;;0.30;99.90;;;;;;5032146;28;20447;-47
2020/12/01 16:38:03;;;;;;;1999.90;999.90;;;0.30;99.90;;;;;;5031864;28;20260;-47
2020/12/01 16:40:59;;;;;;;1999.90;999.90;;;0.30;99.90;;;;;;5027344;28;20444;-48
2020/12/01 16:43:37;;;;;;;1999.90;999.90;;;0.30;99.90;;;;;;5029265;28;20482;-46
2020/12/01 16:46:38;;;;;;;1999.90;999.90;;;0.20;99.90;;;;;;5030465;28;20554;-47
2020/12/01 16:49:19;;;;;;;1999.90;999.90;;;0.30;99.90;;;;;;5026053;28;20535;-47
2020/12/01 16:51:52;;;;;;;1999.90;999.90;;;0.20;99.90;;;;;;5022413;28;20433;-47
2020/12/01 16:54:25;;;;;;;1999.90;999.90;;;0.20;99.90;;;;;;5023244;28;20444;-47
2020/12/01 16:57:01;;;;;;;1999.90;999.90;;;0.20;99.90;;;;;;5021886;28;21167;-47
2020/12/01 16:59:58;;;;;;;1999.90;999.90;;;0.30;99.90;;;;;;5027051;28;20448;-48
2020/12/01 17:02:48;;;;;;;1999.90;999.90;;;0.40;99.90;;;;;;5025430;28;20474;-48
2020/12/01 17:05:26;;;;;;;1999.90;999.90;;;0.40;99.90;;;;;;5029122;28;20441;-47
2020/12/01 17:07:54;;;;;;;1999.90;999.90;;;0.40;99.90;;;;;;5027861;28;20489;-47
2020/12/01 17:10:27;;;;;;;1999.90;999.90;;;0.40;99.90;;;;;;5023507;28;20445;-47
2020/12/01 17:13:11;;;;;;;1999.90;999.90;;;0.40;99.90;;;;;;5025677;28;20853;-48
2020/12/01 17:15:51;;;;;;;1999.90;999.90;;;0.40;99.90;;;;;;5027171;28;20550;-48
2020/12/01 17:18:17;;;;;;;1999.90;999.90;;;0.40;99.90;;;;;;5031197;28;20468;-48
2020/12/01 17:20:43;;;;;;;1999.90;999.90;;;0.50;99.90;;;;;;5030685;28;20956;-47
2020/12/01 17:23:16;;;;;;;1999.90;999.90;;;0.50;99.90;;;;;;5028634;28;20224;-47
2020/12/01 17:25:42;;;;;;;1999.90;999.90;;;0.50;99.90;;;;;;5025233;28;20217;-47
2020/12/01 17:28:21;;;;;;;1999.90;999.90;;;0.50;99.90;;;;;;5022131;28;20981;-48
2020/12/01 17:31:08;;;;;;;1999.90;999.90;;;0.60;99.90;;;;;;5029759;28;20519;-47
2020/12/01 17:33:49;;;;;;;1999.90;999.90;;;0.60;99.90;;;;;;5027523;28;20448;-48
2020/12/01 17:36:29;;;;;;;1999.90;999.90;;;0.60;99.90;;;;;;5023210;28;20472;-48
2020/12/01 17:39:22;;;;;;;1999.90;999.90;;;0.60;99.90;;;;;;5027537;28;20467;-48
2020/12/01 17:41:58;;;;;;;1999.90;999.90;;;0.60;99.90;;;;;;5023955;28;20467;-48
2020/12/01 17:44:35;;;;;;;1999.90;999.90;;;0.60;99.90;;;;;;5025961;28;20514;-48
2020/12/01 17:47:13;;;;;;;1999.90;999.90;;;0.60;99.90;;;;;;5026216;28;20450;-48
2020/12/01 17:49:45;;;;;;;1999.90;999.90;;;0.60;99.90;;;;;;5023147;28;20499;-47
2020/12/01 17:52:23;;;;;;;1999.90;999.90;;;0.60;99.90;;;;;;5020574;28;20959;-47
2020/12/01 17:54:49;;;;;;;1999.90;999.90;;;0.60;99.90;;;;;;5024606;28;20582;-47
2020/12/01 17:57:15;;;;;;;1999.90;999.90;;;0.60;99.90;;;;;;5023378;28;20528;-47
2020/12/01 17:59:41;;;;;;;1999.90;999.90;;;0.60;99.90;;;;;;5021185;28;21612;-48
2020/12/01 18:02:13;;;;;;;1999.90;999.90;;;0.60;99.90;;;;;;5025438;28;20564;-47
2020/12/01 18:04:40;;;;;;;1999.90;999.90;;;0.60;99.90;;;;;;5021534;28;20202;-47
2020/12/01 18:07:12;;;;;;;1999.90;999.90;;;0.60;99.90;;;;;;5024754;28;20477;-48
2020/12/01 18:09:38;;;;;;;1999.90;999.90;;;0.60;99.90;;;;;;5021684;28;20434;-47
2020/12/01 18:12:35;;;;;;;1999.90;999.90;;;0.70;99.90;;;;;;5024359;28;20438;-48
2020/12/01 18:15:15;;;;;;;1999.90;999.90;;;0.70;99.90;;;;;;5026774;28;22270;-48
2020/12/01 18:17:47;;;;;;;1999.90;999.90;;;0.70;99.90;;;;;;5025006;28;20453;-48
2020/12/01 18:20:44;;;;;;;1999.90;999.90;;;0.70;99.90;;;;;;5028209;28;20439;-47
2020/12/01 18:23:39;;;;;;;1999.90;999.90;;;0.70;99.90;;;;;;5024538;28;20485;-47
2020/12/01 18:26:21;;;;;;;1999.90;999.90;;;0.70;99.90;;;;;;5041672;28;21256;-47
2020/12/01 18:28:54;;;;;;;1999.90;999.90;;;0.70;99.90;;;;;;5028527;28;21372;-47
2020/12/01 18:31:48;;;;;;;1999.90;999.90;;;0.70;99.90;;;;;;5029502;28;20488;-47
2020/12/01 18:34:35;;;;;;;1999.90;999.90;;;0.60;99.90;;;;;;5027594;28;20470;-48
2020/12/01 18:37:22;;;;;;;1999.90;999.90;;;0.60;99.90;;;;;;5031129;28;21232;-47
2020/12/01 18:39:49;;;;;;;1999.90;999.90;;;0.70;99.90;;;;;;5028837;28;20447;-47
2020/12/01 18:42:22;;;;;;;1999.90;999.90;;;0.70;99.90;;;;;;5025398;28;20560;-48
2020/12/01 18:44:50;;;;;;;1999.90;999.90;;;0.70;99.90;;;;;;5026996;28;20439;-48
2020/12/01 18:47:21;;;;;;;1999.90;999.90;;;0.70;99.90;;;;;;5023038;28;20483;-47
2020/12/01 18:49:49;;;;;;;1999.90;999.90;;;0.60;99.90;;;;;;5027902;28;20921;-47
2020/12/01 18:52:23;;;;;;;1999.90;999.90;;;0.60;99.90;;;;;;5023957;28;20449;-48
2020/12/01 18:54:50;;;;;;;1999.90;999.90;;;0.50;99.90;;;;;;5025593;28;20438;-47
2020/12/01 18:57:17;;;;;;;1999.90;999.90;;;0.60;99.90;;;;;;5021278;28;20466;-48
2020/12/01 18:59:42;;;;;;;1999.90;999.90;;;0.70;99.90;;;;;;5028923;28;20460;-48
2020/12/01 19:02:09;;;;;;;1999.90;999.90;;;0.70;99.90;;;;;;5025016;28;20921;-48
2020/12/01 19:04:35;;;;;;;1999.90;999.90;;;0.70;99.90;;;;;;5028397;28;20222;-48
2020/12/01 19:07:01;;;;;;;1999.90;999.90;;;0.60;99.90;;;;;;5025870;28;20536;-48
2020/12/01 19:09:27;;;;;;;1999.90;999.90;;;0.60;99.90;;;;;;5028286;28;20449;-48
2020/12/01 19:11:57;;;;;;;1999.90;999.90;;;0.60;99.90;;;;;;5023337;28;20449;-47
2020/12/01 19:14:23;;;;;;;1999.90;999.90;;;0.70;99.90;;;;;;5027898;28;20199;-48
2020/12/01 19:16:56;;;;;;;1999.90;999.90;;;0.70;99.90;;;;;;5028956;28;20930;-48
2020/12/01 19:19:22;;;;;;;1999.90;999.90;;;0.70;99.90;;;;;;5027266;28;20221;-48
2020/12/01 19:21:50;;;;;;;1999.90;999.90;;;0.60;99.90;;;;;;5034621;28;20886;-48
2020/12/01 19:24:17;;;;;;;1999.90;999.90;;;0.60;99.90;;;;;;5031782;28;20195;-47
2020/12/01 19:26:43;;;;;;;1999.90;999.90;;;0.60;99.90;;;;;;5030739;28;20483;-48
2020/12/01 19:29:09;;;;;;;1999.90;999.90;;;0.60;99.90;;;;;;5034410;28;20451;-47
2020/12/01 19:31:35;;;;;;;1999.90;999.90;;;0.70;99.90;;;;;;5032387;28;21251;-47
2020/12/01 19:34:00;;;;;;;1999.90;999.90;;;0.70;99.90;;;;;;5029177;28;20446;-47
2020/12/01 19:36:26;;;;;;;1999.90;999.90;;;0.60;99.90;;;;;;5031247;28;20908;-48
2020/12/01 19:38:52;;;;;;;1999.90;999.90;;;0.80;99.90;;;;;;5026345;28;20262;-48
2020/12/01 19:41:17;;;;;;;1999.90;999.90;;;0.90;99.90;;;;;;5031493;28;20237;-47
2020/12/01 19:43:44;;;;;;;1999.90;999.90;;;0.80;99.90;;;;;;5023274;28;20704;-48
2020/12/01 19:46:11;;;;;;;1999.90;999.90;;;0.90;99.90;;;;;;5030053;28;20218;-47
2020/12/01 19:48:37;;;;;;;1999.90;999.90;;;0.80;99.90;;;;;;5029856;28;21033;-47
2020/12/01 19:51:02;;;;;;;1999.90;999.90;;;0.90;99.90;;;;;;5028094;28;20525;-47
2020/12/01 19:53:28;;;;;;;1999.90;999.90;;;0.90;99.90;;;;;;5026378;28;20268;-48
2020/12/01 19:55:54;;;;;;;1999.90;999.90;;;0.80;99.90;;;;;;5034048;28;20231;-48
2020/12/01 19:58:20;;;;;;;1999.90;999.90;;;0.90;99.90;;;;;;5029790;28;20212;-48
2020/12/01 20:00:45;;;;;;;1999.90;999.90;;;0.80;99.90;;;;;;5028541;28;20887;-47
2020/12/01 20:03:11;;;;;;;1999.90;999.90;;;0.80;99.90;;;;;;5030034;28;20224;-48
2020/12/01 20:05:36;;;;;;;1999.90;999.90;;;0.90;99.90;;;;;;5032505;28;20192;-48
2020/12/01 20:08:02;;;;;;;1999.90;999.90;;;0.80;99.90;;;;;;5029917;28;20214;-47
2020/12/01 20:10:29;;;;;;;1999.90;999.90;;;0.80;99.90;;;;;;5029928;28;20187;-48
2020/12/01 20:12:56;;;;;;;1999.90;999.90;;;0.80;99.90;;;;;;5028851;28;20477;-48
2020/12/01 20:15:22;;;;;;;1999.90;999.90;;;0.90;99.90;;;;;;5028318;28;20462;-48
2020/12/01 20:17:48;;;;;;;1999.90;999.90;;;0.90;99.90;;;;;;5027827;28;20470;-48
2020/12/01 20:20:16;;;;;;;1999.90;999.90;;;0.80;99.90;;;;;;5022178;28;20450;-47
2020/12/01 20:22:43;;;;;;;1999.90;999.90;;;0.80;99.90;;;;;;5028843;28;20749;-47
2020/12/01 20:25:10;;;;;;;1999.90;999.90;;;0.90;99.90;;;;;;5040448;28;20446;-47
2020/12/01 20:27:35;;;;;;;1999.90;999.90;;;0.90;99.90;;;;;;5027257;28;20497;-48
2020/12/01 20:30:02;;;;;;;1999.90;999.90;;;0.90;99.90;;;;;;5029769;28;20526;-47
2020/12/01 20:32:28;;;;;;;1999.90;999.90;;;0.90;99.90;;;;;;5028484;28;20243;-48
2020/12/01 20:34:54;;;;;;;1999.90;999.90;;;0.90;99.90;;;;;;5028632;28;22434;-47
2020/12/01 20:37:57;;;;;;;1999.90;999.90;;;0.80;99.90;;;;;;5028015;28;20216;-48
2020/12/01 20:40:34;;;;;;;1999.90;999.90;;;0.80;99.90;;;;;;5027472;28;20278;-48
2020/12/01 20:43:01;;;;;;;1999.90;999.90;;;0.60;99.90;;;;;;5028686;28;20531;-47
2020/12/01 20:45:26;;;;;;;1999.90;999.90;;;0.60;99.90;;;;;;5027655;28;20940;-48
2020/12/01 20:47:52;;;;;;;1999.90;999.90;;;0.60;99.90;;;;;;5031850;28;20460;-48
2020/12/01 20:50:18;;;;;;;1999.90;999.90;;;0.70;99.90;;;;;;5027985;28;20219;-48
2020/12/01 20:52:45;;;;;;;1999.90;999.90;;;0.70;99.90;;;;;;5027056;28;20220;-48
2020/12/01 20:55:13;;;;;;;1999.90;999.90;;;0.80;99.90;;;;;;5026297;28;20190;-48
2020/12/01 20:57:39;;;;;;;1999.90;999.90;;;0.80;99.90;;;;;;5028886;28;20485;-48
2020/12/01 21:00:08;;;;;;;1999.90;999.90;;;0.80;99.90;;;;;;5026880;28;20495;-47
2020/12/01 21:02:33;;;;;;;1999.90;999.90;;;0.80;99.90;;;;;;5031019;28;20493;-48
2020/12/01 21:05:00;;;;;;;1999.90;999.90;;;0.90;99.90;;;;;;5030715;28;20446;-48
2020/12/01 21:07:27;;;;;;;1999.90;999.90;;;0.80;99.90;;;;;;5025432;28;20212;-48
2020/12/01 21:09:53;;;;;;;1999.90;999.90;;;0.70;99.90;;;;;;5036184;28;20954;-47
2020/12/01 21:12:28;;;;;;;1999.90;999.90;;;0.70;99.90;;;;;;5025484;28;20501;-47
2020/12/01 21:14:55;;;;;;;1999.90;999.90;;;0.60;99.90;;;;;;5031561;28;20464;-49
2020/12/01 21:17:23;;;;;;;1999.90;999.90;;;0.60;99.90;;;;;;5026452;28;20501;-47
2020/12/01 21:19:49;;;;;;;1999.90;999.90;;;0.60;99.90;;;;;;5027029;28;20437;-48
2020/12/01 21:22:26;;;;;;;1999.90;999.90;;;0.70;99.90;;;;;;5030501;28;20981;-48
2020/12/01 21:24:54;;;;;;;1999.90;999.90;;;0.60;99.90;;;;;;5024705;28;20184;-48
2020/12/01 21:27:39;;;;;;;1999.90;999.90;;;0.50;99.90;;;;;;5030013;28;20970;-47
2020/12/01 21:30:10;;;;;;;1999.90;999.90;;;0.40;99.90;;;;;;5029221;28;20904;-47
2020/12/01 21:32:43;;;;;;;1999.90;999.90;;;0.40;99.90;;;;;;5032057;28;20432;-48
2020/12/01 21:35:10;;;;;;;1999.90;999.90;;;0.20;99.90;;;;;;5029900;28;20446;-47
2020/12/01 21:37:36;;;;;;;1999.90;999.90;;;0.10;99.90;;;;;;5029117;28;20465;-47
2020/12/01 21:40:05;;;;;;;1999.90;999.90;;;0.00;99.90;;;;;;5027166;28;20448;-48
2020/12/01 21:42:47;;;;;;;1999.90;999.90;;;-0.10;99.90;;;;;;5032228;28;20609;-48
2020/12/01 21:45:28;;;;;;;1999.90;999.90;;;-0.30;99.90;;;;;;5027182;28;20520;-48
2020/12/01 21:47:54;;;;;;;1999.90;999.90;;;-0.50;99.90;;;;;;5027578;28;20464;-48
2020/12/01 21:50:20;;;;;;;1999.90;999.90;;;-0.60;99.90;;;;;;5026643;28;20454;-47
2020/12/01 21:53:14;;;;;;;1999.90;999.90;;;-0.70;99.90;;;;;;5027037;28;20651;-47
2020/12/01 21:56:11;;;;;;;1999.90;999.90;;;-0.90;99.90;;;;;;5024774;28;20482;-47
2020/12/01 21:58:49;;;;;;;1999.90;999.90;;;-1.10;99.90;;;;;;5011334;28;20442;-48
2020/12/01 22:01:30;;;;;;;1999.90;999.90;;;-1.20;99.90;;;;;;5019296;28;20437;-47
2020/12/01 22:04:32;;;;;;;1999.90;999.90;;;-1.20;99.90;;;;;;5030272;28;20502;-48
2020/12/01 22:07:07;;;;;;;1999.90;999.90;;;-1.30;99.90;;;;;;5029304;28;20429;-48
2020/12/01 22:10:10;;;;;;;1999.90;999.90;;;-1.30;99.90;;;;;;5027639;28;20471;-47
2020/12/01 22:12:46;;;;;;;1999.90;999.90;;;-1.30;99.90;;;;;;5010724;28;21180;-48
2020/12/01 22:15:12;;;;;;;1999.90;999.90;;;-1.40;99.90;;;;;;5030049;28;20567;-47
2020/12/01 22:17:37;;;;;;;1999.90;999.90;;;-1.50;99.90;;;;;;5030357;28;20516;-47
2020/12/01 22:20:14;;;;;;;1999.90;999.90;;;-1.40;99.90;;;;;;5027121;28;20246;-47
2020/12/01 22:23:01;;;;;;;1999.90;999.90;;;-1.40;99.90;;;;;;5030160;28;20252;-48
2020/12/01 22:25:35;;;;;;;1999.90;999.90;;;-1.30;99.90;;;;;;5015070;28;20897;-47
2020/12/01 22:28:07;;;;;;;1999.90;999.90;;;-1.20;99.90;;;;;;5019121;28;20500;-48
2020/12/01 22:31:11;;;;;;;1999.90;999.90;;;-1.10;99.90;;;;;;5030195;28;20429;-48
2020/12/01 22:34:09;;;;;;;1999.90;999.90;;;-1.00;99.90;;;;;;5034314;28;20425;-47
2020/12/01 22:36:37;;;;;;;1999.90;999.90;;;-0.80;99.90;;;;;;5033903;28;20425;-47
2020/12/01 22:39:10;;;;;;;1999.90;999.90;;;-0.70;99.90;;;;;;5031792;28;21012;-47
